sensor_id;sensor_type;location;lat;lon;timestamp;pressure;altitude;pressure_sealevel;temperature;humidity
24390;BME280;12510;56.468;-3.004;2022-11-04T00:02:01;99449.97;;;12.46;nan
24390;BME280;12510;56.468;-3.004;2022-11-04T00:04:28;99450.97;;;12.45;nan
24390;BME280;12510;56.468;-3.004;2022-11-04T00:06:55;99449.13;;;12.46;nan
24390;BME280;12510;56.468;-3.004;2022-11-04T00:09:24;99450.03;;;12.76;nan
24390;BME280;12510;56.468;-3.004;2022-11-04T00:11:51;99461.78;;;12.73;nan
24390;BME280;12510;56.468;-3.004;2022-11-04T00:14:36;99467.00;;;12.44;nan
24390;BME280;12510;56.468;-3.004;2022-11-04T00:17:03;99457.34;;;12.51;nan
24390;BME280;12510;56.468;-3.004;2022-11-04T00:19:49;99461.75;;;12.58;nan
24390;BME280;12510;56.468;-3.004;2022-11-04T00:22:35;99462.41;;;12.37;nan
24390;BME280;12510;56.468;-3.004;2022-11-04T00:25:20;99452.00;;;12.59;nan
24390;BME280;12510;56.468;-3.004;2022-11-04T00:28:14;99447.38;;;12.61;nan
24390;BME280;12510;56.468;-3.004;2022-11-04T00:31:01;99455.16;;;12.39;nan
24390;BME280;12510;56.468;-3.004;2022-11-04T00:33:49;99462.41;;;12.37;nan
24390;BME280;12510;56.468;-3.004;2022-11-04T00:36:16;99469.28;;;12.23;nan
24390;BME280;12510;56.468;-3.004;2022-11-04T00:38:43;99469.09;;;12.71;nan
24390;BME280;12510;56.468;-3.004;2022-11-04T00:41:09;99472.38;;;12.50;nan
24390;BME280;12510;56.468;-3.004;2022-11-04T00:43:56;99472.69;;;12.55;nan
24390;BME280;12510;56.468;-3.004;2022-11-04T00:46:23;99476.19;;;12.48;nan
24390;BME280;12510;56.468;-3.004;2022-11-04T00:48:49;99487.75;;;12.23;nan
24390;BME280;12510;56.468;-3.004;2022-11-04T00:51:16;99482.91;;;12.04;nan
24390;BME280;12510;56.468;-3.004;2022-11-04T00:53:43;99484.16;;;12.63;nan
24390;BME280;12510;56.468;-3.004;2022-11-04T00:56:09;99483.03;;;12.42;nan
24390;BME280;12510;56.468;-3.004;2022-11-04T00:58:36;99470.41;;;12.29;nan
24390;BME280;12510;56.468;-3.004;2022-11-04T01:01:13;99471.28;;;12.45;nan
24390;BME280;12510;56.468;-3.004;2022-11-04T01:03:44;99469.09;;;12.86;nan
24390;BME280;12510;56.468;-3.004;2022-11-04T01:06:11;99469.94;;;13.02;nan
24390;BME280;12510;56.468;-3.004;2022-11-04T01:08:37;99472.72;;;12.70;nan
24390;BME280;12510;56.468;-3.004;2022-11-04T01:11:06;99487.41;;;12.27;nan
24390;BME280;12510;56.468;-3.004;2022-11-04T01:13:33;99489.25;;;12.64;nan
24390;BME280;12510;56.468;-3.004;2022-11-04T01:16:00;99499.06;;;12.79;nan
24390;BME280;12510;56.468;-3.004;2022-11-04T01:18:27;99494.47;;;13.11;nan
24390;BME280;12510;56.468;-3.004;2022-11-04T01:20:54;99495.44;;;12.80;nan
24390;BME280;12510;56.468;-3.004;2022-11-04T01:23:25;99510.22;;;12.43;nan
24390;BME280;12510;56.468;-3.004;2022-11-04T01:25:51;99509.34;;;11.96;nan
24390;BME280;12510;56.468;-3.004;2022-11-04T01:28:17;99499.97;;;11.85;nan
24390;BME280;12510;56.468;-3.004;2022-11-04T01:30:44;99503.41;;;12.48;nan
24390;BME280;12510;56.468;-3.004;2022-11-04T01:33:10;99501.34;;;12.82;nan
24390;BME280;12510;56.468;-3.004;2022-11-04T01:35:37;99494.91;;;12.15;nan
24390;BME280;12510;56.468;-3.004;2022-11-04T01:38:03;99501.22;;;12.05;nan
24390;BME280;12510;56.468;-3.004;2022-11-04T01:40:35;99505.00;;;12.11;nan
24390;BME280;12510;56.468;-3.004;2022-11-04T01:43:01;99503.91;;;11.97;nan
24390;BME280;12510;56.468;-3.004;2022-11-04T01:45:28;99512.44;;;12.07;nan
24390;BME280;12510;56.468;-3.004;2022-11-04T01:48:02;99506.59;;;13.20;nan
24390;BME280;12510;56.468;-3.004;2022-11-04T01:50:31;99523.59;;;12.18;nan
24390;BME280;12510;56.468;-3.004;2022-11-04T01:53:10;99530.25;;;11.66;nan
24390;BME280;12510;56.468;-3.004;2022-11-04T01:55:42;99540.19;;;12.27;nan
24390;BME280;12510;56.468;-3.004;2022-11-04T01:58:14;99531.19;;;12.67;nan
24390;BME280;12510;56.468;-3.004;2022-11-04T02:00:42;99534.84;;;12.43;nan
24390;BME280;12510;56.468;-3.004;2022-11-04T02:03:37;99533.69;;;12.84;nan
24390;BME280;12510;56.468;-3.004;2022-11-04T02:06:04;99539.00;;;12.99;nan
24390;BME280;12510;56.468;-3.004;2022-11-04T02:08:32;99540.56;;;12.47;nan
24390;BME280;12510;56.468;-3.004;2022-11-04T02:11:00;99527.03;;;11.87;nan
24390;BME280;12510;56.468;-3.004;2022-11-04T02:13:30;99531.25;;;12.04;nan
24390;BME280;12510;56.468;-3.004;2022-11-04T02:16:11;99548.41;;;12.32;nan
24390;BME280;12510;56.468;-3.004;2022-11-04T02:19:58;99552.59;;;11.78;nan
24390;BME280;12510;56.468;-3.004;2022-11-04T02:27:31;99578.38;;;11.60;nan
24390;BME280;12510;56.468;-3.004;2022-11-04T02:30:06;99577.28;;;11.37;nan
24390;BME280;12510;56.468;-3.004;2022-11-04T02:32:46;99579.94;;;11.04;nan
24390;BME280;12510;56.468;-3.004;2022-11-04T02:35:21;99579.22;;;11.60;nan
24390;BME280;12510;56.468;-3.004;2022-11-04T02:38:20;99590.06;;;11.57;nan
24390;BME280;12510;56.468;-3.004;2022-11-04T02:43:40;99586.59;;;11.65;nan
24390;BME280;12510;56.468;-3.004;2022-11-04T02:49:09;99590.09;;;11.49;nan
24390;BME280;12510;56.468;-3.004;2022-11-04T02:51:41;99590.28;;;11.39;nan
24390;BME280;12510;56.468;-3.004;2022-11-04T02:57:00;99601.50;;;12.91;nan
24390;BME280;12510;56.468;-3.004;2022-11-04T02:59:38;99596.91;;;11.27;nan
24390;BME280;12510;56.468;-3.004;2022-11-04T03:02:09;99595.03;;;12.16;nan
24390;BME280;12510;56.468;-3.004;2022-11-04T03:04:40;99597.34;;;12.43;nan
24390;BME280;12510;56.468;-3.004;2022-11-04T03:07:11;99604.66;;;12.40;nan
24390;BME280;12510;56.468;-3.004;2022-11-04T03:09:43;99615.13;;;12.80;nan
24390;BME280;12510;56.468;-3.004;2022-11-04T03:12:15;99614.19;;;12.73;nan
24390;BME280;12510;56.468;-3.004;2022-11-04T03:14:49;99613.59;;;12.86;nan
24390;BME280;12510;56.468;-3.004;2022-11-04T03:19:56;99597.69;;;12.94;nan
24390;BME280;12510;56.468;-3.004;2022-11-04T03:22:33;99609.84;;;13.03;nan
24390;BME280;12510;56.468;-3.004;2022-11-04T03:25:04;99602.53;;;13.05;nan
24390;BME280;12510;56.468;-3.004;2022-11-04T03:30:11;99599.63;;;13.00;nan
24390;BME280;12510;56.468;-3.004;2022-11-04T03:35:11;99607.25;;;12.95;nan
24390;BME280;12510;56.468;-3.004;2022-11-04T03:37:38;99609.38;;;13.00;nan
24390;BME280;12510;56.468;-3.004;2022-11-04T03:40:06;99606.06;;;13.59;nan
24390;BME280;12510;56.468;-3.004;2022-11-04T03:42:37;99617.53;;;13.51;nan
24390;BME280;12510;56.468;-3.004;2022-11-04T03:45:05;99618.19;;;13.98;nan
24390;BME280;12510;56.468;-3.004;2022-11-04T03:47:32;99625.75;;;13.56;nan
24390;BME280;12510;56.468;-3.004;2022-11-04T03:50:09;99628.88;;;14.20;nan
24390;BME280;12510;56.468;-3.004;2022-11-04T03:52:37;99627.97;;;14.13;nan
24390;BME280;12510;56.468;-3.004;2022-11-04T03:55:05;99629.66;;;14.35;nan
24390;BME280;12510;56.468;-3.004;2022-11-04T03:57:58;99624.25;;;14.44;nan
24390;BME280;12510;56.468;-3.004;2022-11-04T04:00:34;99635.03;;;12.91;nan
24390;BME280;12510;56.468;-3.004;2022-11-04T04:03:26;99633.09;;;12.85;nan
24390;BME280;12510;56.468;-3.004;2022-11-04T04:06:08;99631.69;;;13.35;nan
24390;BME280;12510;56.468;-3.004;2022-11-04T04:08:40;99638.47;;;13.76;nan
24390;BME280;12510;56.468;-3.004;2022-11-04T04:11:33;99648.22;;;13.75;nan
24390;BME280;12510;56.468;-3.004;2022-11-04T04:14:34;99635.19;;;14.92;nan
24390;BME280;12510;56.468;-3.004;2022-11-04T04:17:42;99640.47;;;14.19;nan
24390;BME280;12510;56.468;-3.004;2022-11-04T04:20:16;99639.00;;;13.71;nan
24390;BME280;12510;56.468;-3.004;2022-11-04T04:22:47;99658.78;;;13.61;nan
24390;BME280;12510;56.468;-3.004;2022-11-04T04:25:16;99655.41;;;13.52;nan
24390;BME280;12510;56.468;-3.004;2022-11-04T04:28:02;99657.25;;;13.66;nan
24390;BME280;12510;56.468;-3.004;2022-11-04T04:30:30;99647.69;;;13.80;nan
24390;BME280;12510;56.468;-3.004;2022-11-04T04:32:59;99650.13;;;14.12;nan
24390;BME280;12510;56.468;-3.004;2022-11-04T04:35:28;99651.88;;;14.19;nan
24390;BME280;12510;56.468;-3.004;2022-11-04T04:41:09;99655.38;;;14.20;nan
24390;BME280;12510;56.468;-3.004;2022-11-04T04:43:56;99664.78;;;13.39;nan
24390;BME280;12510;56.468;-3.004;2022-11-04T04:46:43;99665.28;;;13.12;nan
24390;BME280;12510;56.468;-3.004;2022-11-04T04:49:10;99666.03;;;12.97;nan
24390;BME280;12510;56.468;-3.004;2022-11-04T04:51:46;99668.75;;;13.12;nan
24390;BME280;12510;56.468;-3.004;2022-11-04T04:54:13;99662.47;;;13.13;nan
24390;BME280;12510;56.468;-3.004;2022-11-04T04:56:40;99673.25;;;13.50;nan
24390;BME280;12510;56.468;-3.004;2022-11-04T04:59:06;99672.47;;;13.26;nan
24390;BME280;12510;56.468;-3.004;2022-11-04T05:01:32;99679.84;;;13.31;nan
24390;BME280;12510;56.468;-3.004;2022-11-04T05:03:59;99682.06;;;12.96;nan
24390;BME280;12510;56.468;-3.004;2022-11-04T05:06:25;99683.06;;;12.32;nan
24390;BME280;12510;56.468;-3.004;2022-11-04T05:08:52;99683.03;;;11.59;nan
24390;BME280;12510;56.468;-3.004;2022-11-04T05:11:18;99694.06;;;12.44;nan
24390;BME280;12510;56.468;-3.004;2022-11-04T05:13:44;99698.50;;;11.87;nan
24390;BME280;12510;56.468;-3.004;2022-11-04T05:16:11;99701.28;;;10.95;nan
24390;BME280;12510;56.468;-3.004;2022-11-04T05:18:37;99708.97;;;12.99;nan
24390;BME280;12510;56.468;-3.004;2022-11-04T05:21:05;99708.69;;;12.94;nan
24390;BME280;12510;56.468;-3.004;2022-11-04T05:23:35;99709.69;;;11.97;nan
24390;BME280;12510;56.468;-3.004;2022-11-04T05:26:02;99712.50;;;11.96;nan
24390;BME280;12510;56.468;-3.004;2022-11-04T05:28:28;99713.97;;;12.06;nan
24390;BME280;12510;56.468;-3.004;2022-11-04T05:30:55;99715.81;;;11.73;nan
24390;BME280;12510;56.468;-3.004;2022-11-04T05:33:21;99718.31;;;11.50;nan
24390;BME280;12510;56.468;-3.004;2022-11-04T05:35:48;99719.09;;;11.17;nan
24390;BME280;12510;56.468;-3.004;2022-11-04T05:38:14;99722.03;;;11.14;nan
24390;BME280;12510;56.468;-3.004;2022-11-04T05:40:41;99724.88;;;11.70;nan
24390;BME280;12510;56.468;-3.004;2022-11-04T05:43:07;99725.66;;;12.29;nan
24390;BME280;12510;56.468;-3.004;2022-11-04T05:45:33;99724.38;;;11.91;nan
24390;BME280;12510;56.468;-3.004;2022-11-04T05:48:02;99718.28;;;11.99;nan
24390;BME280;12510;56.468;-3.004;2022-11-04T05:50:30;99723.88;;;12.04;nan
24390;BME280;12510;56.468;-3.004;2022-11-04T05:52:59;99725.72;;;11.96;nan
24390;BME280;12510;56.468;-3.004;2022-11-04T05:55:26;99731.91;;;10.96;nan
24390;BME280;12510;56.468;-3.004;2022-11-04T05:57:52;99726.78;;;10.51;nan
24390;BME280;12510;56.468;-3.004;2022-11-04T06:00:19;99729.16;;;11.80;nan
24390;BME280;12510;56.468;-3.004;2022-11-04T06:02:45;99726.38;;;11.73;nan
24390;BME280;12510;56.468;-3.004;2022-11-04T06:05:12;99731.47;;;11.74;nan
24390;BME280;12510;56.468;-3.004;2022-11-04T06:07:38;99734.25;;;11.23;nan
24390;BME280;12510;56.468;-3.004;2022-11-04T06:10:05;99741.69;;;11.36;nan
24390;BME280;12510;56.468;-3.004;2022-11-04T06:12:31;99741.53;;;11.71;nan
24390;BME280;12510;56.468;-3.004;2022-11-04T06:14:58;99737.59;;;11.75;nan
24390;BME280;12510;56.468;-3.004;2022-11-04T06:17:24;99745.66;;;11.82;nan
24390;BME280;12510;56.468;-3.004;2022-11-04T06:19:50;99747.34;;;12.87;nan
24390;BME280;12510;56.468;-3.004;2022-11-04T06:22:18;99751.16;;;13.16;nan
24390;BME280;12510;56.468;-3.004;2022-11-04T06:24:44;99742.31;;;12.21;nan
24390;BME280;12510;56.468;-3.004;2022-11-04T06:27:11;99751.75;;;11.74;nan
24390;BME280;12510;56.468;-3.004;2022-11-04T06:29:38;99748.94;;;11.67;nan
24390;BME280;12510;56.468;-3.004;2022-11-04T06:32:11;99753.06;;;11.45;nan
24390;BME280;12510;56.468;-3.004;2022-11-04T06:34:39;99750.28;;;12.61;nan
24390;BME280;12510;56.468;-3.004;2022-11-04T06:37:06;99740.38;;;12.63;nan
24390;BME280;12510;56.468;-3.004;2022-11-04T06:39:33;99738.06;;;11.79;nan
24390;BME280;12510;56.468;-3.004;2022-11-04T06:41:59;99745.34;;;11.60;nan
24390;BME280;12510;56.468;-3.004;2022-11-04T06:44:25;99746.47;;;11.41;nan
24390;BME280;12510;56.468;-3.004;2022-11-04T06:46:52;99749.44;;;11.46;nan
24390;BME280;12510;56.468;-3.004;2022-11-04T06:49:20;99752.75;;;11.48;nan
24390;BME280;12510;56.468;-3.004;2022-11-04T06:51:48;99758.31;;;11.45;nan
24390;BME280;12510;56.468;-3.004;2022-11-04T06:54:15;99759.34;;;11.61;nan
24390;BME280;12510;56.468;-3.004;2022-11-04T06:56:42;99760.16;;;11.61;nan
24390;BME280;12510;56.468;-3.004;2022-11-04T06:59:14;99764.47;;;12.03;nan
24390;BME280;12510;56.468;-3.004;2022-11-04T07:01:41;99766.59;;;11.67;nan
24390;BME280;12510;56.468;-3.004;2022-11-04T07:04:08;99768.06;;;11.94;nan
24390;BME280;12510;56.468;-3.004;2022-11-04T07:06:34;99772.00;;;12.15;nan
24390;BME280;12510;56.468;-3.004;2022-11-04T07:09:02;99779.28;;;11.63;nan
24390;BME280;12510;56.468;-3.004;2022-11-04T07:11:31;99781.56;;;12.40;nan
24390;BME280;12510;56.468;-3.004;2022-11-04T07:13:57;99782.91;;;11.46;nan
24390;BME280;12510;56.468;-3.004;2022-11-04T07:16:24;99782.94;;;12.03;nan
24390;BME280;12510;56.468;-3.004;2022-11-04T07:18:51;99792.78;;;11.93;nan
24390;BME280;12510;56.468;-3.004;2022-11-04T07:21:19;99794.63;;;11.93;nan
24390;BME280;12510;56.468;-3.004;2022-11-04T07:23:45;99796.59;;;11.90;nan
24390;BME280;12510;56.468;-3.004;2022-11-04T07:26:11;99785.38;;;11.72;nan
24390;BME280;12510;56.468;-3.004;2022-11-04T07:28:38;99786.53;;;11.94;nan
24390;BME280;12510;56.468;-3.004;2022-11-04T07:31:06;99787.19;;;11.63;nan
24390;BME280;12510;56.468;-3.004;2022-11-04T07:33:33;99789.00;;;12.29;nan
24390;BME280;12510;56.468;-3.004;2022-11-04T07:36:09;99784.06;;;11.84;nan
24390;BME280;12510;56.468;-3.004;2022-11-04T07:38:36;99782.66;;;11.14;nan
24390;BME280;12510;56.468;-3.004;2022-11-04T07:41:02;99788.50;;;11.67;nan
24390;BME280;12510;56.468;-3.004;2022-11-04T07:43:29;99792.38;;;12.62;nan
24390;BME280;12510;56.468;-3.004;2022-11-04T07:46:02;99794.06;;;13.26;nan
24390;BME280;12510;56.468;-3.004;2022-11-04T07:48:28;99796.75;;;12.30;nan
24390;BME280;12510;56.468;-3.004;2022-11-04T07:50:56;99802.81;;;11.40;nan
24390;BME280;12510;56.468;-3.004;2022-11-04T07:53:23;99796.91;;;11.87;nan
24390;BME280;12510;56.468;-3.004;2022-11-04T07:55:49;99802.50;;;12.42;nan
24390;BME280;12510;56.468;-3.004;2022-11-04T07:58:19;99813.94;;;12.82;nan
24390;BME280;12510;56.468;-3.004;2022-11-04T08:00:46;99817.63;;;14.44;nan
24390;BME280;12510;56.468;-3.004;2022-11-04T08:03:12;99814.38;;;15.38;nan
24390;BME280;12510;56.468;-3.004;2022-11-04T08:05:39;99808.94;;;15.89;nan
24390;BME280;12510;56.468;-3.004;2022-11-04T08:08:06;99807.41;;;15.37;nan
24390;BME280;12510;56.468;-3.004;2022-11-04T08:10:33;99814.94;;;16.55;nan
24390;BME280;12510;56.468;-3.004;2022-11-04T08:12:59;99815.06;;;16.12;nan
24390;BME280;12510;56.468;-3.004;2022-11-04T08:15:26;99804.13;;;16.28;nan
24390;BME280;12510;56.468;-3.004;2022-11-04T08:17:54;99804.41;;;15.25;nan
24390;BME280;12510;56.468;-3.004;2022-11-04T08:20:20;99792.84;;;15.11;nan
24390;BME280;12510;56.468;-3.004;2022-11-04T08:22:47;99792.41;;;16.86;nan
24390;BME280;12510;56.468;-3.004;2022-11-04T08:25:13;99792.78;;;16.76;nan
24390;BME280;12510;56.468;-3.004;2022-11-04T08:27:39;99793.97;;;17.15;nan
24390;BME280;12510;56.468;-3.004;2022-11-04T08:30:06;99803.75;;;18.03;nan
24390;BME280;12510;56.468;-3.004;2022-11-04T08:32:33;99801.84;;;18.44;nan
24390;BME280;12510;56.468;-3.004;2022-11-04T08:35:00;99806.88;;;18.72;nan
24390;BME280;12510;56.468;-3.004;2022-11-04T08:37:26;99803.38;;;18.92;nan
24390;BME280;12510;56.468;-3.004;2022-11-04T08:39:53;99814.53;;;19.21;nan
24390;BME280;12510;56.468;-3.004;2022-11-04T08:42:19;99820.13;;;20.34;nan
24390;BME280;12510;56.468;-3.004;2022-11-04T08:44:50;99820.66;;;20.61;nan
24390;BME280;12510;56.468;-3.004;2022-11-04T08:47:17;99823.19;;;19.87;nan
24390;BME280;12510;56.468;-3.004;2022-11-04T08:49:43;99821.34;;;19.49;nan
24390;BME280;12510;56.468;-3.004;2022-11-04T08:52:10;99824.88;;;20.06;nan
24390;BME280;12510;56.468;-3.004;2022-11-04T08:54:36;99831.63;;;20.34;nan
24390;BME280;12510;56.468;-3.004;2022-11-04T08:57:03;99818.09;;;19.79;nan
24390;BME280;12510;56.468;-3.004;2022-11-04T08:59:29;99811.06;;;20.53;nan
24390;BME280;12510;56.468;-3.004;2022-11-04T09:01:55;99820.06;;;20.96;nan
24390;BME280;12510;56.468;-3.004;2022-11-04T09:04:22;99828.09;;;21.15;nan
24390;BME280;12510;56.468;-3.004;2022-11-04T09:06:49;99836.97;;;20.34;nan
24390;BME280;12510;56.468;-3.004;2022-11-04T09:09:17;99841.94;;;20.93;nan
24390;BME280;12510;56.468;-3.004;2022-11-04T09:11:44;99837.69;;;19.98;nan
24390;BME280;12510;56.468;-3.004;2022-11-04T09:14:12;99828.22;;;20.46;nan
24390;BME280;12510;56.468;-3.004;2022-11-04T09:16:40;99825.22;;;19.21;nan
24390;BME280;12510;56.468;-3.004;2022-11-04T09:19:06;99827.69;;;17.90;nan
24390;BME280;12510;56.468;-3.004;2022-11-04T09:21:33;99822.94;;;18.46;nan
24390;BME280;12510;56.468;-3.004;2022-11-04T09:23:59;99822.19;;;18.12;nan
24390;BME280;12510;56.468;-3.004;2022-11-04T09:26:26;99822.78;;;18.20;nan
24390;BME280;12510;56.468;-3.004;2022-11-04T09:28:54;99815.59;;;18.41;nan
24390;BME280;12510;56.468;-3.004;2022-11-04T09:31:21;99816.66;;;18.06;nan
24390;BME280;12510;56.468;-3.004;2022-11-04T09:33:48;99824.59;;;17.66;nan
24390;BME280;12510;56.468;-3.004;2022-11-04T09:36:15;99821.94;;;17.80;nan
24390;BME280;12510;56.468;-3.004;2022-11-04T09:38:42;99819.47;;;17.65;nan
24390;BME280;12510;56.468;-3.004;2022-11-04T09:44:21;99821.72;;;18.48;nan
24390;BME280;12510;56.468;-3.004;2022-11-04T09:46:52;99826.72;;;20.06;nan
24390;BME280;12510;56.468;-3.004;2022-11-04T09:49:19;99827.13;;;19.77;nan
24390;BME280;12510;56.468;-3.004;2022-11-04T09:51:47;99830.59;;;19.46;nan
24390;BME280;12510;56.468;-3.004;2022-11-04T09:54:27;99831.81;;;19.50;nan
24390;BME280;12510;56.468;-3.004;2022-11-04T09:56:58;99831.97;;;19.23;nan
24390;BME280;12510;56.468;-3.004;2022-11-04T09:59:29;99844.50;;;18.37;nan
24390;BME280;12510;56.468;-3.004;2022-11-04T10:23:33;99858.00;;;18.63;nan
24390;BME280;12510;56.468;-3.004;2022-11-04T10:26:45;99870.91;;;18.72;nan
24390;BME280;12510;56.468;-3.004;2022-11-04T10:29:43;99874.66;;;18.04;nan
24390;BME280;12510;56.468;-3.004;2022-11-04T10:32:20;99868.06;;;18.67;nan
24390;BME280;12510;56.468;-3.004;2022-11-04T10:34:53;99856.56;;;17.86;nan
24390;BME280;12510;56.468;-3.004;2022-11-04T10:37:24;99857.91;;;17.42;nan
24390;BME280;12510;56.468;-3.004;2022-11-04T10:39:58;99856.13;;;17.83;nan
24390;BME280;12510;56.468;-3.004;2022-11-04T10:42:25;99857.06;;;17.28;nan
24390;BME280;12510;56.468;-3.004;2022-11-04T10:44:52;99851.84;;;17.06;nan
24390;BME280;12510;56.468;-3.004;2022-11-04T10:47:31;99862.84;;;17.52;nan
24390;BME280;12510;56.468;-3.004;2022-11-04T10:52:39;99870.97;;;17.30;nan
24390;BME280;12510;56.468;-3.004;2022-11-04T10:55:36;99868.19;;;17.65;nan
24390;BME280;12510;56.468;-3.004;2022-11-04T10:58:00;99862.16;;;17.98;nan
24390;BME280;12510;56.468;-3.004;2022-11-04T11:00:39;99859.94;;;17.40;nan
24390;BME280;12510;56.468;-3.004;2022-11-04T11:03:22;99855.81;;;17.99;nan
24390;BME280;12510;56.468;-3.004;2022-11-04T11:05:55;99854.56;;;18.35;nan
24390;BME280;12510;56.468;-3.004;2022-11-04T11:08:34;99862.59;;;17.40;nan
24390;BME280;12510;56.468;-3.004;2022-11-04T11:11:05;99867.69;;;18.03;nan
24390;BME280;12510;56.468;-3.004;2022-11-04T11:13:38;99859.03;;;18.55;nan
24390;BME280;12510;56.468;-3.004;2022-11-04T11:16:20;99856.59;;;17.93;nan
24390;BME280;12510;56.468;-3.004;2022-11-04T11:21:45;99855.59;;;18.41;nan
24390;BME280;12510;56.468;-3.004;2022-11-04T11:24:25;99849.16;;;18.75;nan
24390;BME280;12510;56.468;-3.004;2022-11-04T11:26:54;99854.41;;;19.09;nan
24390;BME280;12510;56.468;-3.004;2022-11-04T11:29:31;99860.81;;;18.88;nan
24390;BME280;12510;56.468;-3.004;2022-11-04T11:32:21;99864.31;;;18.75;nan
24390;BME280;12510;56.468;-3.004;2022-11-04T11:34:51;99855.97;;;18.58;nan
24390;BME280;12510;56.468;-3.004;2022-11-04T11:37:21;99860.28;;;18.46;nan
24390;BME280;12510;56.468;-3.004;2022-11-04T11:39:48;99863.34;;;18.63;nan
24390;BME280;12510;56.468;-3.004;2022-11-04T11:42:16;99869.47;;;18.70;nan
24390;BME280;12510;56.468;-3.004;2022-11-04T11:44:54;99849.53;;;18.86;nan
24390;BME280;12510;56.468;-3.004;2022-11-04T11:47:34;99854.34;;;18.43;nan
24390;BME280;12510;56.468;-3.004;2022-11-04T11:52:44;99843.81;;;18.75;nan
24390;BME280;12510;56.468;-3.004;2022-11-04T11:55:18;99841.25;;;18.35;nan
24390;BME280;12510;56.468;-3.004;2022-11-04T12:00:42;99847.13;;;18.64;nan
24390;BME280;12510;56.468;-3.004;2022-11-04T12:03:18;99849.41;;;17.93;nan
24390;BME280;12510;56.468;-3.004;2022-11-04T12:09:07;99854.50;;;18.75;nan
24390;BME280;12510;56.468;-3.004;2022-11-04T12:17:30;99853.63;;;18.95;nan
24390;BME280;12510;56.468;-3.004;2022-11-04T12:29:11;99854.09;;;21.26;nan
24390;BME280;12510;56.468;-3.004;2022-11-04T12:37:10;99850.44;;;21.20;nan
24390;BME280;12510;56.468;-3.004;2022-11-04T12:40:11;99848.31;;;20.92;nan
24390;BME280;12510;56.468;-3.004;2022-11-04T12:42:50;99855.38;;;19.99;nan
24390;BME280;12510;56.468;-3.004;2022-11-04T12:48:31;99855.69;;;20.09;nan
24390;BME280;12510;56.468;-3.004;2022-11-04T12:56:35;99843.56;;;20.06;nan
24390;BME280;12510;56.468;-3.004;2022-11-04T12:59:24;99843.66;;;20.43;nan
24390;BME280;12510;56.468;-3.004;2022-11-04T13:02:00;99851.75;;;19.80;nan
24390;BME280;12510;56.468;-3.004;2022-11-04T13:04:33;99858.22;;;19.72;nan
24390;BME280;12510;56.468;-3.004;2022-11-04T13:07:14;99866.06;;;19.99;nan
24390;BME280;12510;56.468;-3.004;2022-11-04T13:09:49;99883.38;;;19.51;nan
24390;BME280;12510;56.468;-3.004;2022-11-04T13:12:26;99873.41;;;20.54;nan
24390;BME280;12510;56.468;-3.004;2022-11-04T13:15:04;99875.66;;;20.32;nan
24390;BME280;12510;56.468;-3.004;2022-11-04T13:17:37;99879.56;;;20.04;nan
24390;BME280;12510;56.468;-3.004;2022-11-04T13:22:52;99878.41;;;19.93;nan
24390;BME280;12510;56.468;-3.004;2022-11-04T13:27:51;99879.56;;;19.33;nan
24390;BME280;12510;56.468;-3.004;2022-11-04T13:30:22;99876.31;;;19.63;nan
24390;BME280;12510;56.468;-3.004;2022-11-04T13:32:57;99874.94;;;19.92;nan
24390;BME280;12510;56.468;-3.004;2022-11-04T13:38:04;99881.66;;;19.24;nan
24390;BME280;12510;56.468;-3.004;2022-11-04T13:43:52;99883.94;;;20.23;nan
24390;BME280;12510;56.468;-3.004;2022-11-04T13:51:41;99866.06;;;20.68;nan
24390;BME280;12510;56.468;-3.004;2022-11-04T13:54:23;99862.09;;;20.96;nan
24390;BME280;12510;56.468;-3.004;2022-11-04T13:57:28;99861.84;;;20.97;nan
24390;BME280;12510;56.468;-3.004;2022-11-04T14:00:20;99867.75;;;20.87;nan
24390;BME280;12510;56.468;-3.004;2022-11-04T14:02:49;99866.91;;;20.87;nan
24390;BME280;12510;56.468;-3.004;2022-11-04T14:16:02;99874.06;;;21.12;nan
24390;BME280;12510;56.468;-3.004;2022-11-04T14:18:34;99884.38;;;20.89;nan
24390;BME280;12510;56.468;-3.004;2022-11-04T14:21:06;99884.13;;;21.28;nan
24390;BME280;12510;56.468;-3.004;2022-11-04T14:23:34;99891.38;;;20.90;nan
24390;BME280;12510;56.468;-3.004;2022-11-04T14:26:04;99888.34;;;19.86;nan
24390;BME280;12510;56.468;-3.004;2022-11-04T14:28:31;99887.28;;;20.88;nan
24390;BME280;12510;56.468;-3.004;2022-11-04T14:31:02;99891.28;;;21.16;nan
24390;BME280;12510;56.468;-3.004;2022-11-04T14:33:39;99891.28;;;20.97;nan
24390;BME280;12510;56.468;-3.004;2022-11-04T14:36:33;99895.84;;;20.97;nan
24390;BME280;12510;56.468;-3.004;2022-11-04T14:46:43;99912.56;;;20.23;nan
24390;BME280;12510;56.468;-3.004;2022-11-04T14:49:50;99907.88;;;20.62;nan
24390;BME280;12510;56.468;-3.004;2022-11-04T14:52:33;99911.22;;;20.83;nan
24390;BME280;12510;56.468;-3.004;2022-11-04T14:57:29;99924.84;;;21.18;nan
24390;BME280;12510;56.468;-3.004;2022-11-04T14:59:56;99937.47;;;20.67;nan
24390;BME280;12510;56.468;-3.004;2022-11-04T15:02:28;99941.19;;;20.66;nan
24390;BME280;12510;56.468;-3.004;2022-11-04T15:04:58;99943.13;;;21.40;nan
24390;BME280;12510;56.468;-3.004;2022-11-04T15:07:34;99941.53;;;20.76;nan
24390;BME280;12510;56.468;-3.004;2022-11-04T15:10:23;99940.72;;;20.95;nan
24390;BME280;12510;56.468;-3.004;2022-11-04T15:12:59;99935.56;;;21.55;nan
24390;BME280;12510;56.468;-3.004;2022-11-04T15:15:31;99931.72;;;20.70;nan
24390;BME280;12510;56.468;-3.004;2022-11-04T15:18:21;99933.59;;;20.13;nan
24390;BME280;12510;56.468;-3.004;2022-11-04T15:20:49;99931.22;;;20.30;nan
24390;BME280;12510;56.468;-3.004;2022-11-04T15:23:27;99934.19;;;19.83;nan
24390;BME280;12510;56.468;-3.004;2022-11-04T15:25:55;99920.34;;;20.50;nan
24390;BME280;12510;56.468;-3.004;2022-11-04T15:28:31;99934.56;;;19.41;nan
24390;BME280;12510;56.468;-3.004;2022-11-04T15:33:26;99935.72;;;19.58;nan
24390;BME280;12510;56.468;-3.004;2022-11-04T15:35:54;99932.25;;;20.79;nan
24390;BME280;12510;56.468;-3.004;2022-11-04T15:38:23;99939.13;;;20.68;nan
24390;BME280;12510;56.468;-3.004;2022-11-04T15:40:51;99948.38;;;19.83;nan
24390;BME280;12510;56.468;-3.004;2022-11-04T15:43:17;99948.13;;;19.39;nan
24390;BME280;12510;56.468;-3.004;2022-11-04T15:48:31;99947.53;;;20.72;nan
24390;BME280;12510;56.468;-3.004;2022-11-04T15:51:20;99946.13;;;20.69;nan